Time;durP1;ratioP1;P1;durP2;ratioP2;P2;SDS_P1;SDS_P2;PMS_P1;PMS_P2;Temp;Humidity;BMP_temperature;BMP_pressure;BME280_temperature;BME280_humidity;BME280_pressure;Samples;Min_cycle;Max_cycle;Signal;HPM_P1;HPM_P2
2021/10/13 00:01:26;;;;;;;11.05;6.50;;;;;;;11.68;64.94;95445.47;4969483;28;20038;-64
2021/10/13 00:03:52;;;;;;;12.23;7.10;;;;;;;11.64;63.60;95429.28;4969700;28;20507;-64
2021/10/13 00:06:17;;;;;;;11.05;6.30;;;;;;;10.97;66.27;95455.03;4968578;28;20039;-64
2021/10/13 00:08:42;;;;;;;11.25;6.10;;;;;;;10.87;66.72;95456.81;4969496;28;20147;-64
2021/10/13 00:11:08;;;;;;;10.93;6.50;;;;;;;10.63;66.71;95426.97;4971733;28;20039;-64
2021/10/13 00:13:33;;;;;;;10.77;5.88;;;;;;;11.25;65.96;95440.56;4969485;28;20043;-63
2021/10/13 00:15:59;;;;;;;10.10;6.13;;;;;;;10.78;67.38;95477.22;4968056;28;20463;-63
2021/10/13 00:18:25;;;;;;;17.10;7.00;;;;;;;10.98;66.71;95467.25;4969452;28;20042;-63
2021/10/13 00:20:50;;;;;;;12.10;7.07;;;;;;;10.66;66.16;95468.94;4969258;28;20034;-64
2021/10/13 00:23:15;;;;;;;13.13;7.70;;;;;;;10.84;67.24;95480.56;4971245;28;20022;-63
2021/10/13 00:25:41;;;;;;;15.30;8.27;;;;;;;10.59;68.10;95468.53;4969669;28;20585;-63
2021/10/13 00:28:06;;;;;;;23.80;9.93;;;;;;;10.65;67.75;95478.81;4967148;28;20133;-64
2021/10/13 00:30:32;;;;;;;37.80;11.32;;;;;;;11.57;65.20;95474.22;4967063;28;20390;-64
2021/10/13 00:32:57;;;;;;;20.55;9.60;;;;;;;10.77;66.52;95488.94;4983511;28;20051;-64
2021/10/13 00:35:23;;;;;;;20.98;10.20;;;;;;;10.85;66.67;95482.94;4971066;28;20471;-63
2021/10/13 00:37:48;;;;;;;25.85;10.30;;;;;;;11.23;65.62;95479.25;4967918;28;20034;-63
2021/10/13 00:40:13;;;;;;;20.33;10.27;;;;;;;10.99;66.68;95474.13;4968476;28;20039;-63
2021/10/13 00:42:39;;;;;;;18.75;9.32;;;;;;;10.27;68.14;95478.16;4967714;28;20046;-63
2021/10/13 00:45:08;;;;;;;24.35;9.55;;;;;;;10.39;68.75;95505.09;4968640;28;20042;-63
2021/10/13 00:47:34;;;;;;;19.23;10.45;;;;;;;10.31;68.79;95513.72;4970813;28;20393;-63
2021/10/13 00:50:00;;;;;;;16.17;9.95;;;;;;;9.96;70.04;95512.41;4968434;28;20441;-64
2021/10/13 00:52:26;;;;;;;18.85;10.40;;;;;;;9.84;70.19;95512.09;4967570;28;20053;-63
2021/10/13 00:54:52;;;;;;;29.02;13.68;;;;;;;10.84;68.01;95528.47;4968504;28;20038;-64
2021/10/13 00:57:17;;;;;;;30.67;13.27;;;;;;;11.10;67.12;95505.56;4968736;28;20093;-63
2021/10/13 00:59:42;;;;;;;25.17;12.90;;;;;;;11.15;65.50;95488.69;4967504;28;20026;-63
2021/10/13 01:02:12;;;;;;;23.52;11.23;;;;;;;10.29;68.65;95525.75;4970343;28;20034;-65
2021/10/13 01:05:00;;;;;;;24.70;13.07;;;;;;;10.50;68.30;95528.84;4968433;28;20045;-63
2021/10/13 01:07:40;;;;;;;28.30;13.55;;;;;;;10.81;67.84;95519.22;4968705;28;20043;-64
2021/10/13 01:10:47;;;;;;;31.75;14.75;;;;;;;11.42;66.11;95536.59;4968229;28;20440;-63
2021/10/13 01:13:58;;;;;;;35.08;16.60;;;;;;;11.98;64.33;95542.59;4946485;28;20551;-63
2021/10/13 01:16:46;;;;;;;36.08;16.23;;;;;;;11.29;66.22;95544.63;4927013;29;20051;-62
2021/10/13 01:19:20;;;;;;;36.17;16.27;;;;;;;11.74;64.99;95548.16;4910989;29;20044;-63
2021/10/13 01:21:48;;;;;;;40.80;17.80;;;;;;;11.09;66.25;95551.91;4954523;28;20077;-63
2021/10/13 01:24:26;;;;;;;44.20;17.80;;;;;;;11.71;65.15;95554.88;4967518;28;20042;-62
2021/10/13 01:27:29;;;;;;;51.00;19.25;;;;;;;11.99;65.07;95551.38;4969008;28;20034;-63
2021/10/13 01:29:56;;;;;;;47.38;17.73;;;;;;;10.78;66.82;95543.72;4967915;28;20023;-63
2021/10/13 01:32:26;;;;;;;55.75;20.35;;;;;;;11.76;65.48;95543.31;4970224;28;20027;-63
2021/10/13 01:34:55;;;;;;;44.10;18.58;;;;;;;10.68;67.10;95541.25;4968051;28;20035;-63
2021/10/13 01:37:27;;;;;;;54.85;20.08;;;;;;;11.58;64.82;95538.94;4967230;28;20064;-63
2021/10/13 01:39:56;;;;;;;52.20;20.08;;;;;;;11.55;65.66;95552.84;4968074;28;20539;-64
2021/10/13 01:42:24;;;;;;;43.53;19.00;;;;;;;10.54;68.02;95559.84;4968479;28;20521;-63
2021/10/13 01:44:55;;;;;;;50.03;20.02;;;;;;;10.98;68.00;95566.50;4966417;28;20061;-63
2021/10/13 01:47:22;;;;;;;49.25;19.45;;;;;;;10.88;66.98;95575.47;4970065;28;20026;-63
2021/10/13 01:49:49;;;;;;;56.17;20.95;;;;;;;11.13;66.14;95571.53;4967753;28;20102;-63
2021/10/13 01:52:17;;;;;;;52.33;19.70;;;;;;;11.59;65.14;95564.50;4967877;28;20035;-63
2021/10/13 01:54:44;;;;;;;56.58;20.92;;;;;;;11.41;65.94;95582.97;4966762;28;20138;-63
2021/10/13 01:57:11;;;;;;;40.80;17.08;;;;;;;10.22;68.46;95573.94;4968302;28;20121;-63
2021/10/13 01:59:40;;;;;;;52.47;20.27;;;;;;;10.63;67.89;95598.00;4967422;28;20654;-64
2021/10/13 02:02:06;;;;;;;55.13;21.50;;;;;;;11.14;65.98;95591.75;4968540;28;20034;-63
2021/10/13 02:04:40;;;;;;;51.83;20.70;;;;;;;10.93;66.95;95594.00;4966476;28;20512;-64
2021/10/13 02:07:07;;;;;;;52.92;20.40;;;;;;;11.16;65.65;95580.81;4968313;28;20055;-64
2021/10/13 02:09:35;;;;;;;59.45;21.38;;;;;;;11.68;64.69;95568.03;4966352;28;20090;-63
2021/10/13 02:12:02;;;;;;;61.42;23.10;;;;;;;12.18;63.38;95570.63;4968320;28;20058;-63
2021/10/13 02:14:30;;;;;;;41.20;19.27;;;;;;;11.48;64.33;95606.53;4970565;28;20125;-63
2021/10/13 02:16:58;;;;;;;57.25;22.08;;;;;;;11.28;65.34;95602.41;4970631;28;20090;-64
2021/10/13 02:19:27;;;;;;;58.38;21.02;;;;;;;11.33;65.30;95598.88;4969878;28;20035;-63
2021/10/13 02:21:54;;;;;;;50.22;20.63;;;;;;;11.29;65.01;95617.31;4971698;28;20104;-63
2021/10/13 02:24:31;;;;;;;49.60;20.05;;;;;;;11.46;64.34;95608.69;4969825;28;20672;-63
2021/10/13 02:27:04;;;;;;;69.97;23.02;;;;;;;12.12;63.36;95585.19;4971544;28;20055;-63
2021/10/13 02:29:29;;;;;;;52.55;19.92;;;;;;;11.09;65.69;95605.16;4970860;28;20033;-64
2021/10/13 02:31:55;;;;;;;60.17;21.17;;;;;;;11.88;64.24;95604.16;4970593;28;20130;-63
2021/10/13 02:34:20;;;;;;;54.58;21.23;;;;;;;11.95;63.63;95623.97;4985576;28;20501;-63
2021/10/13 02:36:46;;;;;;;58.58;22.30;;;;;;;12.14;62.65;95610.47;4986466;28;20098;-63
2021/10/13 02:39:11;;;;;;;56.78;20.90;;;;;;;11.97;63.88;95608.44;4969653;28;20041;-63
2021/10/13 02:41:37;;;;;;;52.85;20.77;;;;;;;11.75;64.07;95615.59;4971363;28;20508;-64
2021/10/13 02:44:05;;;;;;;54.42;21.38;;;;;;;11.75;63.87;95624.38;4971650;28;20646;-63
2021/10/13 02:46:41;;;;;;;49.22;21.25;;;;;;;11.89;63.75;95637.69;4970615;28;20070;-64
2021/10/13 02:49:21;;;;;;;57.03;21.67;;;;;;;11.75;63.11;95632.34;4969402;28;20089;-63
2021/10/13 02:52:10;;;;;;;78.70;26.30;;;;;;;12.29;61.82;95585.34;4970945;28;20058;-63
2021/10/13 02:54:48;;;;;;;53.75;21.55;;;;;;;12.19;63.08;95638.91;4969667;28;20410;-63
2021/10/13 02:57:15;;;;;;;60.28;23.05;;;;;;;12.16;62.96;95644.84;4971215;28;20108;-64
2021/10/13 02:59:42;;;;;;;58.70;22.35;;;;;;;12.60;62.84;95648.63;4969640;28;20523;-64
2021/10/13 03:02:14;;;;;;;67.18;23.13;;;;;;;13.04;61.80;95644.31;4971684;28;20423;-63
2021/10/13 03:04:47;;;;;;;59.83;22.45;;;;;;;12.88;61.40;95644.72;4985734;28;20042;-64
2021/10/13 03:07:16;;;;;;;76.38;24.83;;;;;;;13.02;61.60;95647.31;4970029;28;20042;-64
2021/10/13 03:09:50;;;;;;;52.22;21.67;;;;;;;12.49;61.59;95642.75;4970556;28;20054;-63
2021/10/13 03:12:16;;;;;;;57.13;21.98;;;;;;;12.04;62.06;95633.91;4971045;28;20047;-63
2021/10/13 03:14:43;;;;;;;58.00;22.00;;;;;;;12.45;62.09;95647.91;4970062;28;20027;-63
2021/10/13 03:17:09;;;;;;;63.70;23.17;;;;;;;12.99;61.32;95650.59;4972585;28;20018;-63
2021/10/13 03:19:37;;;;;;;55.83;22.25;;;;;;;13.11;60.97;95637.47;4970284;28;20504;-63
2021/10/13 03:22:04;;;;;;;54.03;22.52;;;;;;;13.15;60.80;95650.97;4985376;28;20116;-63
2021/10/13 03:24:29;;;;;;;57.42;22.92;;;;;;;12.42;61.37;95651.16;4969122;28;20042;-63
2021/10/13 03:26:54;;;;;;;47.35;22.20;;;;;;;12.14;62.44;95641.69;4969344;28;20030;-63
2021/10/13 03:29:20;;;;;;;58.80;23.05;;;;;;;11.80;63.15;95645.56;4972214;28;20054;-63
2021/10/13 03:31:46;;;;;;;66.72;24.90;;;;;;;12.37;62.22;95653.16;4969754;28;20071;-63
2021/10/13 03:34:14;;;;;;;66.80;24.85;;;;;;;12.30;61.66;95658.13;4970122;28;20166;-62
2021/10/13 03:36:49;;;;;;;55.10;23.13;;;;;;;11.43;63.18;95626.09;4970372;28;20034;-62
2021/10/13 03:39:17;;;;;;;61.78;24.15;;;;;;;12.05;62.82;95660.28;4968593;28;20445;-63
2021/10/13 03:41:43;;;;;;;57.75;22.52;;;;;;;11.72;63.44;95670.28;4970443;28;20051;-63
2021/10/13 03:44:09;;;;;;;49.90;21.63;;;;;;;11.23;64.34;95687.72;4971849;28;20029;-63
2021/10/13 03:46:37;;;;;;;54.60;22.73;;;;;;;11.73;63.40;95681.72;4969390;28;20409;-64
2021/10/13 03:49:03;;;;;;;63.28;24.48;;;;;;;12.42;63.01;95685.06;4969598;28;20031;-62
2021/10/13 03:51:29;;;;;;;57.35;23.70;;;;;;;12.38;61.77;95690.19;4969808;28;20042;-62
2021/10/13 03:53:54;;;;;;;61.58;25.05;;;;;;;12.37;62.00;95685.97;4968448;28;20153;-62
2021/10/13 03:56:20;;;;;;;60.60;24.58;;;;;;;12.21;62.29;95666.06;4971933;28;20022;-62
2021/10/13 03:58:46;;;;;;;56.15;22.73;;;;;;;12.33;62.21;95703.66;4969336;28;20097;-63
2021/10/13 04:01:12;;;;;;;63.67;24.75;;;;;;;12.64;61.97;95692.28;4967706;28;20038;-63
2021/10/13 04:03:39;;;;;;;55.25;23.35;;;;;;;12.24;62.56;95692.13;4968017;28;20043;-62
2021/10/13 04:06:04;;;;;;;65.50;24.15;;;;;;;12.65;61.79;95705.34;4968531;28;20039;-62
2021/10/13 04:08:30;;;;;;;59.38;23.17;;;;;;;12.25;62.06;95699.03;4970281;28;20033;-64
2021/10/13 04:10:55;;;;;;;60.92;23.38;;;;;;;11.92;62.34;95709.06;4967766;28;20045;-63
2021/10/13 04:13:21;;;;;;;49.42;21.95;;;;;;;12.38;61.90;95711.53;4969440;28;20042;-63
2021/10/13 04:15:46;;;;;;;65.95;24.05;;;;;;;12.60;61.70;95699.34;4967836;28;20039;-63
2021/10/13 04:18:11;;;;;;;50.65;23.00;;;;;;;12.20;61.39;95696.50;4969332;28;20122;-63
2021/10/13 04:20:37;;;;;;;51.75;22.10;;;;;;;11.69;63.18;95722.28;4968989;28;20096;-64
2021/10/13 04:23:02;;;;;;;50.50;22.58;;;;;;;11.28;64.35;95708.94;4971117;28;20077;-63
2021/10/13 04:25:28;;;;;;;42.35;21.08;;;;;;;11.42;63.17;95725.72;4968249;28;20427;-63
2021/10/13 04:27:53;;;;;;;54.47;23.17;;;;;;;11.28;64.59;95732.13;4968050;28;20481;-64
2021/10/13 04:30:18;;;;;;;41.83;20.13;;;;;;;11.68;63.05;95727.91;4968327;28;20042;-63
2021/10/13 04:32:45;;;;;;;49.25;21.88;;;;;;;11.74;62.06;95718.72;4968822;28;20053;-63
2021/10/13 04:35:11;;;;;;;45.30;20.63;;;;;;;11.44;63.37;95738.75;4970231;28;20105;-63
2021/10/13 04:37:36;;;;;;;35.95;20.08;;;;;;;10.70;65.88;95736.00;4969284;28;20039;-63
2021/10/13 04:40:04;;;;;;;30.35;17.08;;;;;;;10.51;65.56;95743.97;4968780;28;20712;-63
2021/10/13 04:42:29;;;;;;;22.83;14.50;;;;;;;10.19;65.45;95747.31;4967885;28;20436;-63
2021/10/13 04:44:54;;;;;;;34.88;20.75;;;;;;;11.18;64.09;95730.41;4968630;28;20027;-62
2021/10/13 04:47:20;;;;;;;36.35;20.65;;;;;;;11.18;64.28;95743.72;4970627;28;20077;-62
2021/10/13 04:49:45;;;;;;;33.40;20.85;;;;;;;10.80;65.08;95748.31;4968440;28;20035;-62
2021/10/13 04:52:10;;;;;;;33.90;20.40;;;;;;;11.02;63.61;95737.09;4968818;28;20655;-62
2021/10/13 04:54:36;;;;;;;22.10;17.13;;;;;;;10.28;66.17;95748.28;4968794;28;20051;-62
2021/10/13 04:57:01;;;;;;;21.48;17.10;;;;;;;10.22;66.41;95741.41;4967557;28;20035;-62
2021/10/13 04:59:27;;;;;;;34.33;18.50;;;;;;;11.29;62.80;95750.47;4970186;28;20050;-62
2021/10/13 05:01:52;;;;;;;20.85;16.15;;;;;;;10.77;63.71;95746.25;4968254;28;20027;-62
2021/10/13 05:04:17;;;;;;;29.35;17.77;;;;;;;10.47;64.92;95753.59;4968213;28;20039;-62
2021/10/13 05:06:43;;;;;;;22.25;17.70;;;;;;;10.88;64.05;95743.16;4968852;28;20058;-62
2021/10/13 05:09:09;;;;;;;24.42;17.63;;;;;;;11.78;61.76;95759.72;4968381;28;20041;-62
2021/10/13 05:11:34;;;;;;;20.08;16.25;;;;;;;10.95;63.96;95756.06;4970481;28;20027;-62
2021/10/13 05:14:00;;;;;;;23.70;17.55;;;;;;;11.16;63.01;95761.88;4967180;28;20042;-63
2021/10/13 05:16:25;;;;;;;30.90;20.08;;;;;;;11.15;62.26;95757.63;4968248;28;20504;-62
2021/10/13 05:18:50;;;;;;;33.95;19.85;;;;;;;11.17;61.96;95758.13;4968002;28;20053;-62
2021/10/13 05:21:16;;;;;;;35.53;21.05;;;;;;;11.46;62.27;95771.19;4968225;28;20489;-63
2021/10/13 05:23:41;;;;;;;39.72;20.63;;;;;;;10.88;63.43;95772.41;4966960;28;20033;-62
2021/10/13 05:26:07;;;;;;;40.30;21.38;;;;;;;11.17;62.21;95766.91;4970444;28;20054;-62
2021/10/13 05:28:32;;;;;;;39.85;21.90;;;;;;;11.06;61.54;95772.69;4968237;28;20097;-62
2021/10/13 05:30:58;;;;;;;42.35;22.88;;;;;;;11.59;61.80;95785.63;4967678;28;20046;-62
2021/10/13 05:33:23;;;;;;;51.05;24.05;;;;;;;12.06;61.22;95797.84;4982785;28;20050;-62
2021/10/13 05:35:48;;;;;;;30.30;19.98;;;;;;;12.18;60.63;95782.13;4968168;28;20053;-62
2021/10/13 05:38:14;;;;;;;33.15;20.40;;;;;;;12.30;61.05;95781.63;4970476;28;20027;-64
2021/10/13 05:40:39;;;;;;;35.63;20.42;;;;;;;12.25;60.53;95738.28;4968024;28;20043;-64
2021/10/13 05:43:04;;;;;;;25.90;18.67;;;;;;;12.13;60.69;95784.09;4968275;28;20042;-64
2021/10/13 05:45:30;;;;;;;32.53;20.38;;;;;;;12.45;60.38;95789.31;4967928;28;20051;-63
2021/10/13 05:47:55;;;;;;;36.22;20.92;;;;;;;12.55;59.64;95788.31;4971043;28;20046;-63
2021/10/13 05:50:21;;;;;;;30.98;20.48;;;;;;;12.48;59.44;95790.56;4973012;28;20047;-65
2021/10/13 05:52:46;;;;;;;38.33;22.80;;;;;;;12.89;59.43;95803.03;4971590;28;20035;-66
2021/10/13 05:55:11;;;;;;;34.25;20.52;;;;;;;12.84;59.45;95793.25;4987125;28;20412;-65
2021/10/13 05:57:37;;;;;;;31.63;20.88;;;;;;;12.69;59.55;95813.09;4972221;28;20050;-65
2021/10/13 06:00:04;;;;;;;25.80;18.98;;;;;;;12.67;59.17;95811.78;4971454;28;20122;-64
2021/10/13 06:02:32;;;;;;;27.55;18.52;;;;;;;12.62;59.24;95814.56;4972082;28;20022;-64
2021/10/13 06:04:57;;;;;;;28.85;19.27;;;;;;;12.75;59.42;95808.44;4971238;28;20039;-64
2021/10/13 06:07:23;;;;;;;24.92;18.58;;;;;;;12.00;59.57;95822.25;4970110;28;20045;-65
2021/10/13 06:09:48;;;;;;;21.95;17.80;;;;;;;11.74;61.10;95816.56;4972943;28;20043;-65
2021/10/13 06:12:14;;;;;;;25.38;18.35;;;;;;;12.29;60.38;95835.28;4971769;28;20047;-65
2021/10/13 06:14:39;;;;;;;24.38;18.30;;;;;;;11.72;60.80;95832.84;4971588;28;20388;-66
2021/10/13 06:17:06;;;;;;;23.95;18.17;;;;;;;11.56;61.35;95823.50;4973403;28;20038;-65
2021/10/13 06:19:31;;;;;;;24.35;18.98;;;;;;;12.24;60.23;95836.16;4970979;28;20035;-64
2021/10/13 06:21:57;;;;;;;23.15;18.00;;;;;;;11.76;61.16;95841.03;4970811;28;20054;-64
2021/10/13 06:24:22;;;;;;;29.52;20.10;;;;;;;12.42;60.26;95843.25;4970914;28;20039;-64
2021/10/13 06:26:48;;;;;;;21.77;19.00;;;;;;;12.96;59.73;95816.75;4971489;28;20493;-66
2021/10/13 06:29:13;;;;;;;21.10;17.48;;;;;;;13.14;58.95;95836.38;4972844;28;20157;-65
2021/10/13 06:31:38;;;;;;;19.60;17.23;;;;;;;13.38;59.12;95828.09;4970853;28;20121;-64
2021/10/13 06:34:04;;;;;;;18.35;16.05;;;;;;;12.90;58.88;95852.69;4970964;28;20046;-64
2021/10/13 06:36:29;;;;;;;19.05;16.00;;;;;;;12.75;59.46;95862.59;4971231;28;20035;-64
2021/10/13 06:38:54;;;;;;;16.08;14.40;;;;;;;12.49;59.76;95853.56;4970972;28;20452;-64
2021/10/13 06:41:20;;;;;;;15.98;14.38;;;;;;;12.61;59.09;95858.38;4973090;28;20023;-64
2021/10/13 06:43:46;;;;;;;14.73;13.35;;;;;;;11.90;60.50;95860.53;4970852;28;20045;-64
2021/10/13 06:46:11;;;;;;;15.85;13.75;;;;;;;11.54;61.12;95855.78;4970493;28;20075;-64
2021/10/13 06:48:36;;;;;;;15.65;14.07;;;;;;;12.21;60.31;95861.53;4969357;28;20106;-66
2021/10/13 06:51:02;;;;;;;16.48;14.93;;;;;;;12.30;60.42;95872.31;4969075;28;20125;-65
2021/10/13 06:53:29;;;;;;;15.77;14.30;;;;;;;12.57;59.88;95865.38;4971295;28;20027;-65
2021/10/13 06:55:56;;;;;;;14.13;12.82;;;;;;;11.79;60.31;95873.22;4969995;28;20053;-64
2021/10/13 06:58:21;;;;;;;14.82;12.85;;;;;;;11.82;61.35;95877.19;4969274;28;20114;-64
2021/10/13 07:00:47;;;;;;;14.75;12.88;;;;;;;11.39;62.15;95878.13;4968798;28;20167;-64
2021/10/13 07:03:12;;;;;;;14.10;12.65;;;;;;;11.74;61.55;95885.84;4968928;28;20097;-64
2021/10/13 07:05:38;;;;;;;13.80;12.48;;;;;;;12.07;60.01;95891.94;4970968;28;20027;-63
2021/10/13 07:08:04;;;;;;;14.77;12.60;;;;;;;11.99;60.09;95893.44;4973135;28;20088;-62
2021/10/13 07:10:29;;;;;;;15.25;12.15;;;;;;;11.76;60.61;95899.66;4969181;28;20042;-62
2021/10/13 07:12:56;;;;;;;14.25;12.95;;;;;;;11.61;60.88;95898.03;4970722;28;20039;-63
2021/10/13 07:15:21;;;;;;;12.10;11.10;;;;;;;12.02;60.74;95908.03;4969722;28;20074;-63
2021/10/13 07:17:47;;;;;;;12.73;11.35;;;;;;;12.43;59.77;95900.88;4970138;28;20026;-62
2021/10/13 07:20:13;;;;;;;12.77;11.60;;;;;;;12.49;60.21;95909.59;4986799;28;20114;-62
2021/10/13 07:22:39;;;;;;;13.32;12.02;;;;;;;12.52;58.88;95911.66;4969017;28;20141;-62
2021/10/13 07:25:06;;;;;;;11.93;10.70;;;;;;;11.69;60.30;95905.38;4970419;28;20046;-67
2021/10/13 07:27:31;;;;;;;11.88;9.68;;;;;;;11.16;62.40;95908.34;4967792;28;20043;-66
2021/10/13 07:29:58;;;;;;;13.05;11.85;;;;;;;12.06;60.63;95917.03;4970260;28;20039;-64
2021/10/13 07:32:26;;;;;;;14.55;13.27;;;;;;;13.24;59.70;95909.09;4971484;28;20034;-64
2021/10/13 07:34:52;;;;;;;13.00;11.90;;;;;;;11.65;59.88;95921.16;4969891;28;20057;-63
2021/10/13 07:37:17;;;;;;;13.38;12.00;;;;;;;12.72;58.21;95926.47;4970346;28;20446;-63
2021/10/13 07:39:43;;;;;;;14.20;12.80;;;;;;;12.75;58.58;95929.34;4969797;28;20082;-65
2021/10/13 07:42:08;;;;;;;12.75;11.60;;;;;;;13.96;56.14;95918.09;4970360;28;20037;-64
2021/10/13 07:44:35;;;;;;;11.75;10.75;;;;;;;12.67;57.18;95934.56;4971620;28;20039;-67
2021/10/13 07:47:01;;;;;;;11.50;10.50;;;;;;;12.51;57.36;95930.63;4969899;28;20039;-66
2021/10/13 07:49:27;;;;;;;9.90;9.00;;;;;;;12.03;58.10;95925.63;4969057;28;20101;-67
2021/10/13 07:51:53;;;;;;;9.38;8.13;;;;;;;11.65;59.98;95937.13;4970005;28;20097;-67
2021/10/13 07:54:20;;;;;;;8.40;7.13;;;;;;;11.44;59.33;95944.66;4968613;28;20047;-67
2021/10/13 07:56:47;;;;;;;6.70;6.10;;;;;;;10.74;60.23;95944.53;4969890;28;20113;-66
2021/10/13 07:59:12;;;;;;;7.93;7.15;;;;;;;11.41;61.17;95952.44;4971569;28;20027;-67
2021/10/13 08:01:37;;;;;;;7.78;6.65;;;;;;;11.39;60.55;95966.03;4968227;28;20050;-68
2021/10/13 08:04:03;;;;;;;8.07;7.28;;;;;;;13.09;59.47;95948.66;4967948;28;20066;-67
2021/10/13 08:06:28;;;;;;;8.15;7.35;;;;;;;12.52;58.97;95951.66;4968318;28;20086;-68
2021/10/13 08:08:54;;;;;;;7.90;7.20;;;;;;;13.27;57.79;95956.59;4968377;28;20050;-66
2021/10/13 08:11:19;;;;;;;10.32;6.88;;;;;;;12.29;58.35;95960.66;4969839;28;20042;-67
2021/10/13 08:13:44;;;;;;;8.27;6.20;;;;;;;13.14;58.13;95953.91;4969274;28;20374;-67
2021/10/13 08:16:10;;;;;;;6.10;5.60;;;;;;;12.95;57.42;95949.50;4968974;28;20023;-67
2021/10/13 08:18:35;;;;;;;6.03;5.53;;;;;;;11.08;58.91;95956.88;4968842;28;20113;-67
2021/10/13 08:21:02;;;;;;;8.20;6.93;;;;;;;11.41;60.67;95958.56;4967779;28;20506;-67
2021/10/13 08:23:28;;;;;;;7.00;6.40;;;;;;;11.44;61.20;95955.31;4971147;28;20038;-67
2021/10/13 08:25:58;;;;;;;8.93;7.72;;;;;;;12.04;60.72;95960.00;4967997;28;20126;-68
2021/10/13 08:28:24;;;;;;;7.88;7.10;;;;;;;11.52;60.18;95969.06;4968030;28;20054;-67
2021/10/13 08:30:50;;;;;;;7.07;6.38;;;;;;;11.56;59.31;95964.72;4968466;28;20311;-67
2021/10/13 08:33:15;;;;;;;7.63;6.75;;;;;;;12.12;58.18;95948.66;4967081;28;20122;-68
2021/10/13 08:35:41;;;;;;;6.75;5.90;;;;;;;12.02;56.58;95964.03;4967819;28;20023;-67
2021/10/13 08:38:06;;;;;;;6.13;5.60;;;;;;;11.28;59.16;95975.25;4969799;28;20031;-67
2021/10/13 08:40:32;;;;;;;5.85;5.32;;;;;;;11.43;57.48;95960.94;4967316;28;20038;-67
2021/10/13 08:43:02;;;;;;;7.50;5.70;;;;;;;11.77;59.56;95970.53;4968992;28;20118;-67
2021/10/13 08:45:30;;;;;;;6.10;4.88;;;;;;;11.32;58.94;95981.59;4968575;28;20085;-67
2021/10/13 08:47:57;;;;;;;6.28;5.68;;;;;;;12.23;57.68;95963.41;4969404;28;29042;-67
2021/10/13 08:50:26;;;;;;;6.95;5.60;;;;;;;12.73;57.22;95968.88;4970930;28;20461;-67
2021/10/13 08:52:53;;;;;;;11.90;5.57;;;;;;;12.61;54.47;95973.13;4967989;28;20031;-67
2021/10/13 08:55:19;;;;;;;5.53;4.80;;;;;;;12.95;56.34;95970.88;4967829;28;20045;-67
2021/10/13 08:57:45;;;;;;;6.43;4.72;;;;;;;12.73;55.87;95973.41;4969010;28;20504;-67
2021/10/13 09:00:20;;;;;;;5.07;4.57;;;;;;;11.36;56.37;95971.97;4968561;28;20086;-68
2021/10/13 09:02:45;;;;;;;4.00;3.70;;;;;;;12.72;53.22;95977.19;4968110;28;20029;-67
2021/10/13 09:05:14;;;;;;;4.65;4.28;;;;;;;11.41;57.35;95966.56;4970423;28;20026;-67
2021/10/13 09:07:49;;;;;;;5.25;4.70;;;;;;;12.35;54.50;95959.47;4968844;28;20039;-67
2021/10/13 09:10:14;;;;;;;5.22;4.72;;;;;;;13.39;52.62;95968.63;4968265;28;20074;-69
2021/10/13 09:12:40;;;;;;;5.30;4.70;;;;;;;12.70;53.18;95966.81;4967508;28;20085;-65
2021/10/13 09:15:12;;;;;;;5.18;4.75;;;;;;;13.49;53.18;95961.16;4968471;28;20497;-65
2021/10/13 09:17:58;;;;;;;5.05;4.65;;;;;;;13.33;49.98;95970.63;4968121;28;20035;-66
2021/10/13 09:20:29;;;;;;;7.10;4.95;;;;;;;14.35;51.62;95960.16;4968175;28;20434;-68
2021/10/13 09:22:59;;;;;;;6.10;4.97;;;;;;;14.57;47.67;95964.69;4968270;28;20071;-66
2021/10/13 09:25:25;;;;;;;6.05;4.97;;;;;;;13.32;50.64;95976.28;4967234;28;20056;-65
2021/10/13 09:27:50;;;;;;;5.80;5.28;;;;;;;13.10;52.73;95979.63;4967189;28;20054;-65
2021/10/13 09:30:25;;;;;;;6.43;5.82;;;;;;;12.65;54.92;95974.91;4966578;28;20139;-64
2021/10/13 09:32:50;;;;;;;6.63;5.90;;;;;;;12.20;54.05;95971.19;4966410;28;20046;-66
2021/10/13 09:35:26;;;;;;;7.22;5.38;;;;;;;11.19;57.21;95980.44;4969885;28;20097;-64
2021/10/13 09:37:51;;;;;;;7.13;6.28;;;;;;;12.00;54.58;95974.22;4968563;28;20050;-65
2021/10/13 09:40:31;;;;;;;9.00;5.95;;;;;;;13.39;54.39;95982.78;4981445;23;20069;-70
2021/10/13 09:43:00;;;;;;;7.28;6.10;;;;;;;13.58;54.19;95982.63;4966559;28;20516;-79
2021/10/13 09:45:31;;;;;;;8.38;5.97;;;;;;;13.91;51.99;95988.53;4968375;28;20342;-68
2021/10/13 09:47:59;;;;;;;5.78;5.28;;;;;;;12.65;52.00;95988.25;4968113;28;20481;-72
2021/10/13 09:50:50;;;;;;;6.35;5.78;;;;;;;13.43;51.66;95981.09;4968079;28;20027;-67
2021/10/13 09:53:20;;;;;;;6.45;5.82;;;;;;;13.34;52.59;95985.56;4967053;28;20050;-66
2021/10/13 09:55:46;;;;;;;5.47;4.57;;;;;;;13.60;52.35;95976.97;4968493;28;20046;-65
2021/10/13 09:58:25;;;;;;;4.68;4.30;;;;;;;12.72;51.57;95982.53;4968206;28;20043;-65
2021/10/13 10:01:07;;;;;;;4.65;4.13;;;;;;;12.82;52.25;95979.66;4967708;28;20564;-65
2021/10/13 10:03:34;;;;;;;4.05;3.70;;;;;;;13.30;49.65;95973.09;4967345;28;20690;-65
2021/10/13 10:06:00;;;;;;;5.53;4.93;;;;;;;13.22;50.12;95982.63;4982909;28;20066;-66
2021/10/13 10:08:25;;;;;;;4.97;4.57;;;;;;;14.00;52.26;95977.91;4961898;28;20069;-64
2021/10/13 10:11:03;;;;;;;5.25;4.75;;;;;;;13.46;49.74;95985.84;4967912;28;20043;-65
2021/10/13 10:13:37;;;;;;;5.45;4.78;;;;;;;12.06;52.37;95981.03;4967859;28;20042;-65
2021/10/13 10:16:03;;;;;;;5.88;5.38;;;;;;;13.22;51.32;95982.63;4968220;28;20093;-65
2021/10/13 10:18:34;;;;;;;7.22;5.40;;;;;;;13.55;49.50;95974.41;4956596;28;20595;-65
2021/10/13 10:21:18;;;;;;;7.60;5.45;;;;;;;14.44;48.74;95974.38;4967729;28;20042;-64
2021/10/13 10:23:44;;;;;;;5.82;5.22;;;;;;;14.27;48.49;95972.41;4960321;28;20035;-66
2021/10/13 10:26:25;;;;;;;6.43;5.72;;;;;;;14.07;49.53;95980.94;4970107;28;20101;-66
2021/10/13 10:28:50;;;;;;;4.60;4.20;;;;;;;13.07;48.30;95989.03;4967595;28;20042;-67
2021/10/13 10:31:25;;;;;;;7.60;4.60;;;;;;;13.78;47.96;95986.72;4967701;28;20047;-67
2021/10/13 10:33:50;;;;;;;5.78;5.28;;;;;;;13.34;47.96;95988.22;4963594;28;20409;-66
2021/10/13 10:36:16;;;;;;;5.38;4.88;;;;;;;15.05;47.04;95982.69;4968611;28;20027;-65
2021/10/13 10:38:48;;;;;;;4.85;4.18;;;;;;;13.92;46.66;95981.31;4964385;28;20031;-67
2021/10/13 10:41:13;;;;;;;9.95;4.95;;;;;;;13.40;48.34;95988.91;4973254;28;20493;-65
2021/10/13 10:43:39;;;;;;;5.70;5.18;;;;;;;13.84;49.53;95982.84;4971114;28;20063;-65
2021/10/13 10:46:04;;;;;;;5.65;4.65;;;;;;;14.23;47.29;95971.44;4971107;28;20050;-66
2021/10/13 10:48:46;;;;;;;4.80;3.95;;;;;;;14.07;49.26;95985.50;4960800;28;20503;-66
2021/10/13 10:51:12;;;;;;;;;;;;;;;13.21;51.60;95986.34;4971366;28;20043;-65
2021/10/13 10:53:45;;;;;;;5.40;4.10;;;;;;;12.93;50.31;95991.72;4970703;28;19968;-65
2021/10/13 10:56:29;;;;;;;5.07;4.25;;;;;;;12.46;51.48;95991.00;4973032;28;20532;-65
2021/10/13 10:59:03;;;;;;;7.78;4.60;;;;;;;12.39;51.96;95990.59;4969262;28;20405;-68
2021/10/13 11:01:28;;;;;;;6.78;4.68;;;;;;;12.42;51.24;95978.53;4969647;28;20042;-65
2021/10/13 11:03:54;;;;;;;5.13;4.40;;;;;;;12.86;50.66;95987.88;4970260;28;20094;-66
2021/10/13 11:06:20;;;;;;;4.90;4.35;;;;;;;13.15;50.58;95988.31;4968920;28;20137;-66
2021/10/13 11:09:01;;;;;;;6.30;3.92;;;;;;;13.68;48.76;95982.41;4964777;28;20125;-66
2021/10/13 11:11:34;;;;;;;5.25;3.83;;;;;;;12.83;49.10;95985.78;4973048;28;20031;-66
2021/10/13 11:14:04;;;;;;;3.90;3.55;;;;;;;13.55;50.70;95975.19;4970818;28;20111;-66
2021/10/13 11:16:30;;;;;;;4.18;3.78;;;;;;;13.30;48.83;95989.91;4970863;28;20062;-65
2021/10/13 11:19:10;;;;;;;4.82;3.25;;;;;;;12.27;49.93;95994.81;4960143;28;20035;-65
2021/10/13 11:21:36;;;;;;;4.10;3.70;;;;;;;14.36;46.54;95972.44;4963645;28;20082;-66
2021/10/13 11:24:03;;;;;;;3.05;2.03;;;;;;;13.08;44.27;95977.25;4970763;28;20054;-64
2021/10/13 11:26:29;;;;;;;3.88;2.63;;;;;;;13.88;46.45;95977.69;4972477;28;20019;-68